D/T METAR WX W/DIR W/SPE G/SPE TEMP DEWP
7/12/19 23:50 EGMC 072350Z 21021G33KT 9999 OVC017 10/08 Q1005 SSW (210°) 24.2mph 38.0mph 10°C 8°C
7/12/19 23:20 EGMC 072320Z 22019KT 9999 OVC017 10/08 Q1006 SW (220°) 21.9mph 10°C 8°C
7/12/19 22:50 EGMC 072250Z 22019KT 9999 OVC017 11/08 Q1007 SW (220°) 21.9mph 11°C 8°C
7/12/19 22:20 EGMC 072220Z 22019KT 9999 OVC017 10/07 Q1007 SW (220°) 21.9mph 10°C 7°C
7/12/19 21:50 EGMC 072150Z 21019KT 9999 OVC018 10/07 Q1008 SSW (210°) 21.9mph 10°C 7°C
7/12/19 21:20 EGMC 072120Z 22016KT 9999 OVC019 10/07 Q1009 SW (220°) 18.4mph 10°C 7°C
7/12/19 20:50 EGMC 072050Z 22016KT 9999 OVC020 10/07 Q1009 SW (220°) 18.4mph 10°C 7°C
7/12/19 20:20 EGMC 072020Z 23015KT 9999 OVC020 09/06 Q1010 SW (230°) 17.3mph 9°C 6°C
7/12/19 19:20 EGMC 071920Z 23011KT 9999 BKN023 09/06 Q1011 SW (230°) 12.7mph 9°C 6°C
7/12/19 18:50 EGMC 071850Z 22014KT 9999 BKN022 09/06 Q1011 SW (220°) 16.1mph 9°C 6°C
7/12/19 18:20 EGMC 071820Z 22012KT 9999 BKN025 09/06 Q1012 SW (220°) 13.8mph 9°C 6°C
7/12/19 17:50 EGMC 071750Z 23012KT 9999 BKN026 09/06 Q1012 SW (230°) 13.8mph 9°C 6°C
7/12/19 17:20 EGMC 071720Z 21010KT 9999 SCT028 09/06 Q1012 SSW (210°) 11.5mph 9°C 6°C
7/12/19 16:20 EGMC 071620Z 22009KT 9999 SCT032 08/05 Q1012 SW (220°) 10.4mph 8°C 5°C
7/12/19 15:50 EGMC 071550Z 22010KT 9999 SCT031 09/06 Q1013 SW (220°) 11.5mph 9°C 6°C
7/12/19 14:50 EGMC 071450Z 22010KT 9999 FEW033 10/06 Q1013 SW (220°) 11.5mph 10°C 6°C
7/12/19 14:20 EGMC 071420Z 23009KT 9999 SCT033 10/06 Q1013 SW (230°) 10.4mph 10°C 6°C
7/12/19 13:20 EGMC 071320Z 24009KT 9999 FEW030 BKN035 10/05 Q1013 WSW (240°) 10.4mph 10°C 5°C
7/12/19 12:50 EGMC 071250Z 23008KT 9999 FEW020 BKN035 09/06 Q1013 SW (230°) 9.2mph 9°C 6°C
7/12/19 11:50 EGMC 071150Z 23009KT 9999 BKN038 09/06 Q1014 SW (230°) 10.4mph 9°C 6°C
7/12/19 11:20 EGMC 071120Z 23009KT 9999 BKN038 09/06 Q1014 SW (230°) 10.4mph 9°C 6°C
7/12/19 10:50 EGMC 071050Z 24009KT 9999 BKN039 08/05 Q1014 WSW (240°) 10.4mph 8°C 5°C
7/12/19 10:20 EGMC 071020Z 24009KT 9999 BKN041 08/05 Q1014 WSW (240°) 10.4mph 8°C 5°C
7/12/19 09:50 EGMC 070950Z 24009KT 9999 BKN042 08/05 Q1014 WSW (240°) 10.4mph 8°C 5°C
7/12/19 09:20 EGMC 070920Z 24010KT 9999 BKN042 08/05 Q1014 WSW (240°) 11.5mph 8°C 5°C
7/12/19 08:50 EGMC 070850Z 24010KT 9999 BKN043 08/05 Q1014 WSW (240°) 11.5mph 8°C 5°C
7/12/19 08:20 EGMC 070820Z 24010KT 9999 BKN043 08/06 Q1013 WSW (240°) 11.5mph 8°C 6°C
7/12/19 07:50 EGMC 070750Z 24010KT 9999 SCT041 08/05 Q1013 WSW (240°) 11.5mph 8°C 5°C
7/12/19 07:20 EGMC 070720Z 23010KT 9999 BKN041 08/05 Q1013 SW (230°) 11.5mph 8°C 5°C
7/12/19 06:50 EGMC 070650Z 24008KT 9999 BKN043 08/05 Q1013 WSW (240°) 9.2mph 8°C 5°C
7/12/19 06:20 EGMC 070620Z 24008KT 9999 BKN044 08/05 Q1012 WSW (240°) 9.2mph 8°C 5°C
7/12/19 05:50 EGMC 070550Z 24009KT 9999 BKN043 08/05 Q1012 WSW (240°) 10.4mph 8°C 5°C
7/12/19 05:20 EGMC 070520Z 24007KT 9999 BKN042 07/05 Q1011 WSW (240°) 8.1mph 7°C 5°C
7/12/19 04:50 EGMC 070450Z 24007KT 9999 BKN041 08/06 Q1011 WSW (240°) 8.1mph 8°C 6°C
7/12/19 04:20 EGMC 070420Z 24007KT 9999 BKN041 09/06 Q1011 WSW (240°) 8.1mph 9°C 6°C
7/12/19 03:20 EGMC 070320Z 24008KT 9999 BKN041 08/05 Q1010 WSW (240°) 9.2mph 8°C 5°C
7/12/19 02:20 EGMC 070220Z 25011KT 9999 BKN041 08/06 Q1010 WSW (250°) 12.7mph 8°C 6°C
7/12/19 01:50 EGMC 070150Z 26011KT 9999 BKN045 08/06 Q1010 W (260°) 12.7mph 8°C 6°C
7/12/19 01:20 EGMC 070120Z 24010KT 9999 SCT045 08/06 Q1009 WSW (240°) 11.5mph 8°C 6°C
7/12/19 00:20 EGMC 070020Z 24010KT 9999 SCT045 08/06 Q1009 WSW (240°) 11.5mph 8°C 6°C
6/12/19 23:50 EGMC 062350Z 24010KT 9999 FEW047 08/05 Q1009 WSW (240°) 11.5mph 8°C 5°C
6/12/19 22:50 EGMC 062250Z 24009KT 9999 SCT032 BKN045 09/06 Q1008 WSW (240°) 10.4mph 9°C 6°C
6/12/19 22:20 EGMC 062220Z 26012KT 9999 FEW043 09/06 Q1007 W (260°) 13.8mph 9°C 6°C
6/12/19 21:50 EGMC 062150Z 25012KT 9999 FEW029 09/06 Q1007 WSW (250°) 13.8mph 9°C 6°C
6/12/19 21:20 EGMC 062120Z 26013KT 9999 FEW034 10/06 Q1006 W (260°) 15.0mph 10°C 6°C
6/12/19 20:50 EGMC 062050Z 27015KT 9999 FEW031 BKN039 10/06 Q1006 W (270°) 17.3mph 10°C 6°C
6/12/19 20:20 EGMC 062020Z 27014KT 9999 FEW032 BKN040 10/07 Q1005 W (270°) 16.1mph 10°C 7°C
6/12/19 19:50 EGMC 061950Z 26016KT 9999 FEW033 BKN040 10/07 Q1004 W (260°) 18.4mph 10°C 7°C